sensor_id;sensor_type;location;lat;lon;timestamp;P1;durP1;ratioP1;P2;durP2;ratioP2
40595;SDS011;26304;48.794;9.820;2023-03-01T00:04:00;3.47;;;3.28;;
40595;SDS011;26304;48.794;9.820;2023-03-01T00:09:42;3.08;;;2.88;;
40595;SDS011;26304;48.794;9.820;2023-03-01T00:15:26;4.18;;;3.15;;
40595;SDS011;26304;48.794;9.820;2023-03-01T00:21:10;2.92;;;2.72;;
40595;SDS011;26304;48.794;9.820;2023-03-01T00:26:53;2.92;;;2.72;;
40595;SDS011;26304;48.794;9.820;2023-03-01T00:32:37;3.30;;;3.00;;
40595;SDS011;26304;48.794;9.820;2023-03-01T00:38:21;2.88;;;2.67;;
40595;SDS011;26304;48.794;9.820;2023-03-01T00:44:03;2.78;;;2.58;;
40595;SDS011;26304;48.794;9.820;2023-03-01T00:49:46;2.90;;;2.60;;
40595;SDS011;26304;48.794;9.820;2023-03-01T00:55:29;2.67;;;2.47;;
40595;SDS011;26304;48.794;9.820;2023-03-01T01:01:13;2.83;;;2.63;;
40595;SDS011;26304;48.794;9.820;2023-03-01T01:06:58;2.97;;;2.78;;
40595;SDS011;26304;48.794;9.820;2023-03-01T01:12:42;2.67;;;2.47;;
40595;SDS011;26304;48.794;9.820;2023-03-01T01:18:25;2.58;;;2.38;;
40595;SDS011;26304;48.794;9.820;2023-03-01T01:24:08;2.53;;;2.33;;
40595;SDS011;26304;48.794;9.820;2023-03-01T01:29:53;2.60;;;2.40;;
40595;SDS011;26304;48.794;9.820;2023-03-01T01:35:36;2.70;;;2.50;;
40595;SDS011;26304;48.794;9.820;2023-03-01T01:41:19;2.90;;;2.70;;
40595;SDS011;26304;48.794;9.820;2023-03-01T01:47:03;2.50;;;2.38;;
40595;SDS011;26304;48.794;9.820;2023-03-01T01:52:48;2.80;;;2.60;;
40595;SDS011;26304;48.794;9.820;2023-03-01T01:58:32;2.30;;;2.10;;
40595;SDS011;26304;48.794;9.820;2023-03-01T02:04:16;2.05;;;1.95;;
40595;SDS011;26304;48.794;9.820;2023-03-01T02:09:59;2.78;;;2.58;;
40595;SDS011;26304;48.794;9.820;2023-03-01T02:15:41;2.40;;;2.20;;
40595;SDS011;26304;48.794;9.820;2023-03-01T02:21:36;2.78;;;2.58;;
40595;SDS011;26304;48.794;9.820;2023-03-01T02:27:26;2.50;;;2.30;;
40595;SDS011;26304;48.794;9.820;2023-03-01T02:33:16;2.30;;;2.20;;
40595;SDS011;26304;48.794;9.820;2023-03-01T02:38:59;2.20;;;2.10;;
40595;SDS011;26304;48.794;9.820;2023-03-01T02:44:44;2.00;;;1.90;;
40595;SDS011;26304;48.794;9.820;2023-03-01T02:50:38;2.45;;;2.25;;
40595;SDS011;26304;48.794;9.820;2023-03-01T02:56:28;2.13;;;2.03;;
40595;SDS011;26304;48.794;9.820;2023-03-01T03:02:19;2.25;;;2.05;;
40595;SDS011;26304;48.794;9.820;2023-03-01T03:08:17;2.55;;;2.35;;
40595;SDS011;26304;48.794;9.820;2023-03-01T03:14:04;1.80;;;1.70;;
40595;SDS011;26304;48.794;9.820;2023-03-01T03:19:53;2.35;;;2.25;;
40595;SDS011;26304;48.794;9.820;2023-03-01T03:25:37;2.20;;;2.10;;
40595;SDS011;26304;48.794;9.820;2023-03-01T03:31:19;1.90;;;1.80;;
40595;SDS011;26304;48.794;9.820;2023-03-01T03:37:02;1.63;;;1.52;;
40595;SDS011;26304;48.794;9.820;2023-03-01T03:42:45;1.60;;;1.50;;
40595;SDS011;26304;48.794;9.820;2023-03-01T03:48:28;1.55;;;1.45;;
40595;SDS011;26304;48.794;9.820;2023-03-01T03:54:11;1.13;;;1.13;;
40595;SDS011;26304;48.794;9.820;2023-03-01T03:59:55;0.70;;;0.70;;
40595;SDS011;26304;48.794;9.820;2023-03-01T04:05:37;0.80;;;0.80;;
40595;SDS011;26304;48.794;9.820;2023-03-01T04:11:20;0.60;;;0.60;;
40595;SDS011;26304;48.794;9.820;2023-03-01T04:17:10;1.08;;;0.93;;
40595;SDS011;26304;48.794;9.820;2023-03-01T04:22:56;0.60;;;0.60;;
40595;SDS011;26304;48.794;9.820;2023-03-01T04:28:41;0.60;;;0.60;;
40595;SDS011;26304;48.794;9.820;2023-03-01T04:34:27;0.63;;;0.63;;
40595;SDS011;26304;48.794;9.820;2023-03-01T04:40:10;0.43;;;0.43;;
40595;SDS011;26304;48.794;9.820;2023-03-01T04:45:59;0.40;;;0.40;;
40595;SDS011;26304;48.794;9.820;2023-03-01T04:51:44;0.40;;;0.40;;
40595;SDS011;26304;48.794;9.820;2023-03-01T04:57:27;0.43;;;0.43;;
40595;SDS011;26304;48.794;9.820;2023-03-01T05:03:09;0.40;;;0.40;;
40595;SDS011;26304;48.794;9.820;2023-03-01T05:08:53;0.40;;;0.40;;
40595;SDS011;26304;48.794;9.820;2023-03-01T05:14:36;0.30;;;0.30;;
40595;SDS011;26304;48.794;9.820;2023-03-01T05:20:19;0.30;;;0.30;;
40595;SDS011;26304;48.794;9.820;2023-03-01T05:26:06;0.43;;;0.43;;
40595;SDS011;26304;48.794;9.820;2023-03-01T05:31:48;0.45;;;0.45;;
40595;SDS011;26304;48.794;9.820;2023-03-01T05:37:31;0.60;;;0.60;;
40595;SDS011;26304;48.794;9.820;2023-03-01T05:43:15;0.60;;;0.60;;
40595;SDS011;26304;48.794;9.820;2023-03-01T05:48:58;2.45;;;0.68;;
40595;SDS011;26304;48.794;9.820;2023-03-01T05:54:41;0.70;;;0.47;;
40595;SDS011;26304;48.794;9.820;2023-03-01T06:00:25;1.42;;;0.80;;
40595;SDS011;26304;48.794;9.820;2023-03-01T06:06:07;1.60;;;1.10;;
40595;SDS011;26304;48.794;9.820;2023-03-01T06:11:50;2.15;;;1.20;;
40595;SDS011;26304;48.794;9.820;2023-03-01T06:17:34;1.17;;;1.08;;
40595;SDS011;26304;48.794;9.820;2023-03-01T06:23:18;1.63;;;1.30;;
40595;SDS011;26304;48.794;9.820;2023-03-01T06:29:00;2.85;;;1.70;;
40595;SDS011;26304;48.794;9.820;2023-03-01T06:34:44;2.92;;;1.75;;
40595;SDS011;26304;48.794;9.820;2023-03-01T06:40:26;3.55;;;2.30;;
40595;SDS011;26304;48.794;9.820;2023-03-01T06:46:09;5.10;;;2.65;;
40595;SDS011;26304;48.794;9.820;2023-03-01T06:51:53;6.70;;;2.40;;
40595;SDS011;26304;48.794;9.820;2023-03-01T06:57:35;3.88;;;2.58;;
40595;SDS011;26304;48.794;9.820;2023-03-01T07:03:17;3.05;;;2.15;;
40595;SDS011;26304;48.794;9.820;2023-03-01T07:09:01;3.13;;;2.30;;
40595;SDS011;26304;48.794;9.820;2023-03-01T07:14:44;3.28;;;2.70;;
40595;SDS011;26304;48.794;9.820;2023-03-01T07:20:27;4.10;;;3.22;;
40595;SDS011;26304;48.794;9.820;2023-03-01T07:26:10;6.37;;;5.60;;
40595;SDS011;26304;48.794;9.820;2023-03-01T07:31:53;8.88;;;7.82;;
40595;SDS011;26304;48.794;9.820;2023-03-01T07:37:35;22.53;;;8.77;;
40595;SDS011;26304;48.794;9.820;2023-03-01T07:43:19;13.80;;;7.45;;
40595;SDS011;26304;48.794;9.820;2023-03-01T07:49:02;9.32;;;6.72;;
40595;SDS011;26304;48.794;9.820;2023-03-01T07:54:45;8.45;;;7.70;;
40595;SDS011;26304;48.794;9.820;2023-03-01T08:00:29;7.18;;;6.47;;
40595;SDS011;26304;48.794;9.820;2023-03-01T08:06:12;9.48;;;7.57;;
40595;SDS011;26304;48.794;9.820;2023-03-01T08:11:56;11.35;;;10.20;;
40595;SDS011;26304;48.794;9.820;2023-03-01T08:17:41;11.27;;;10.27;;
40595;SDS011;26304;48.794;9.820;2023-03-01T08:23:24;12.55;;;11.45;;
40595;SDS011;26304;48.794;9.820;2023-03-01T08:29:06;12.85;;;11.52;;
40595;SDS011;26304;48.794;9.820;2023-03-01T08:34:50;12.38;;;11.38;;
40595;SDS011;26304;48.794;9.820;2023-03-01T08:40:32;13.48;;;11.75;;
40595;SDS011;26304;48.794;9.820;2023-03-01T08:46:14;13.45;;;12.23;;
40595;SDS011;26304;48.794;9.820;2023-03-01T08:51:59;12.65;;;11.48;;
40595;SDS011;26304;48.794;9.820;2023-03-01T08:57:41;13.55;;;12.25;;
40595;SDS011;26304;48.794;9.820;2023-03-01T09:03:24;13.27;;;12.00;;
40595;SDS011;26304;48.794;9.820;2023-03-01T09:09:12;13.25;;;12.25;;
40595;SDS011;26304;48.794;9.820;2023-03-01T09:14:56;12.50;;;11.40;;
40595;SDS011;26304;48.794;9.820;2023-03-01T09:20:39;12.70;;;11.52;;
40595;SDS011;26304;48.794;9.820;2023-03-01T09:26:24;11.93;;;10.85;;
40595;SDS011;26304;48.794;9.820;2023-03-01T09:32:07;11.32;;;10.23;;
40595;SDS011;26304;48.794;9.820;2023-03-01T09:37:50;11.35;;;10.43;;
40595;SDS011;26304;48.794;9.820;2023-03-01T09:43:37;11.45;;;10.45;;
40595;SDS011;26304;48.794;9.820;2023-03-01T09:49:27;11.00;;;10.00;;
40595;SDS011;26304;48.794;9.820;2023-03-01T09:55:14;10.82;;;9.77;;
40595;SDS011;26304;48.794;9.820;2023-03-01T10:01:00;9.90;;;9.00;;
40595;SDS011;26304;48.794;9.820;2023-03-01T10:06:50;9.57;;;8.77;;
40595;SDS011;26304;48.794;9.820;2023-03-01T10:12:40;11.13;;;9.98;;
40595;SDS011;26304;48.794;9.820;2023-03-01T10:18:26;9.15;;;8.32;;
40595;SDS011;26304;48.794;9.820;2023-03-01T10:24:12;9.15;;;8.35;;
40595;SDS011;26304;48.794;9.820;2023-03-01T10:29:58;9.80;;;8.90;;
40595;SDS011;26304;48.794;9.820;2023-03-01T10:35:49;9.98;;;9.07;;
40595;SDS011;26304;48.794;9.820;2023-03-01T10:41:32;9.02;;;8.23;;
40595;SDS011;26304;48.794;9.820;2023-03-01T10:47:16;9.52;;;8.52;;
40595;SDS011;26304;48.794;9.820;2023-03-01T10:53:03;8.95;;;8.23;;
40595;SDS011;26304;48.794;9.820;2023-03-01T10:58:56;8.07;;;7.40;;
40595;SDS011;26304;48.794;9.820;2023-03-01T11:04:39;8.63;;;7.93;;
40595;SDS011;26304;48.794;9.820;2023-03-01T11:10:25;7.60;;;7.00;;
40595;SDS011;26304;48.794;9.820;2023-03-01T11:16:10;7.93;;;7.28;;
40595;SDS011;26304;48.794;9.820;2023-03-01T11:21:55;8.63;;;7.82;;
40595;SDS011;26304;48.794;9.820;2023-03-01T11:27:43;7.85;;;7.10;;
40595;SDS011;26304;48.794;9.820;2023-03-01T11:33:32;7.63;;;7.00;;
40595;SDS011;26304;48.794;9.820;2023-03-01T11:39:21;8.32;;;7.57;;
40595;SDS011;26304;48.794;9.820;2023-03-01T11:45:12;7.85;;;7.20;;
40595;SDS011;26304;48.794;9.820;2023-03-01T11:50:55;9.13;;;8.45;;
40595;SDS011;26304;48.794;9.820;2023-03-01T11:56:45;8.40;;;7.60;;
40595;SDS011;26304;48.794;9.820;2023-03-01T12:02:37;8.30;;;7.50;;
40595;SDS011;26304;48.794;9.820;2023-03-01T12:08:41;7.57;;;6.93;;
40595;SDS011;26304;48.794;9.820;2023-03-01T12:14:35;8.68;;;7.97;;
40595;SDS011;26304;48.794;9.820;2023-03-01T12:20:34;7.55;;;6.85;;
40595;SDS011;26304;48.794;9.820;2023-03-01T12:26:25;7.18;;;6.57;;
40595;SDS011;26304;48.794;9.820;2023-03-01T12:32:15;7.35;;;6.68;;
40595;SDS011;26304;48.794;9.820;2023-03-01T12:38:15;8.63;;;6.38;;
40595;SDS011;26304;48.794;9.820;2023-03-01T12:44:23;6.65;;;5.93;;
40595;SDS011;26304;48.794;9.820;2023-03-01T12:50:18;6.57;;;5.50;;
40595;SDS011;26304;48.794;9.820;2023-03-01T12:56:06;6.95;;;5.57;;
40595;SDS011;26304;48.794;9.820;2023-03-01T13:01:53;13.23;;;5.15;;
40595;SDS011;26304;48.794;9.820;2023-03-01T13:07:44;5.70;;;5.07;;
40595;SDS011;26304;48.794;9.820;2023-03-01T13:13:35;5.65;;;5.07;;
40595;SDS011;26304;48.794;9.820;2023-03-01T13:19:18;4.93;;;4.47;;
40595;SDS011;26304;48.794;9.820;2023-03-01T13:25:10;5.32;;;4.82;;
40595;SDS011;26304;48.794;9.820;2023-03-01T13:30:57;6.03;;;4.75;;
40595;SDS011;26304;48.794;9.820;2023-03-01T13:36:46;5.25;;;4.85;;
40595;SDS011;26304;48.794;9.820;2023-03-01T13:42:33;4.90;;;4.50;;
40595;SDS011;26304;48.794;9.820;2023-03-01T13:48:22;4.70;;;4.20;;
40595;SDS011;26304;48.794;9.820;2023-03-01T13:54:09;4.95;;;4.50;;
40595;SDS011;26304;48.794;9.820;2023-03-01T13:59:54;4.90;;;4.40;;
40595;SDS011;26304;48.794;9.820;2023-03-01T14:05:38;5.03;;;4.53;;
40595;SDS011;26304;48.794;9.820;2023-03-01T14:11:32;4.78;;;4.28;;
40595;SDS011;26304;48.794;9.820;2023-03-01T14:23:39;5.18;;;4.78;;
40595;SDS011;26304;48.794;9.820;2023-03-01T14:29:24;4.45;;;4.15;;
40595;SDS011;26304;48.794;9.820;2023-03-01T14:35:18;4.60;;;4.20;;
40595;SDS011;26304;48.794;9.820;2023-03-01T14:41:05;4.55;;;4.15;;
40595;SDS011;26304;48.794;9.820;2023-03-01T14:46:51;4.38;;;3.97;;
40595;SDS011;26304;48.794;9.820;2023-03-01T14:52:36;4.47;;;4.15;;
40595;SDS011;26304;48.794;9.820;2023-03-01T14:58:23;3.90;;;3.60;;
40595;SDS011;26304;48.794;9.820;2023-03-01T15:04:07;4.88;;;3.97;;
40595;SDS011;26304;48.794;9.820;2023-03-01T15:09:52;5.38;;;3.75;;
40595;SDS011;26304;48.794;9.820;2023-03-01T15:15:37;4.50;;;4.10;;
40595;SDS011;26304;48.794;9.820;2023-03-01T15:21:22;4.10;;;3.72;;
40595;SDS011;26304;48.794;9.820;2023-03-01T15:27:12;5.50;;;4.25;;
40595;SDS011;26304;48.794;9.820;2023-03-01T15:33:18;4.15;;;3.88;;
40595;SDS011;26304;48.794;9.820;2023-03-01T15:45:22;4.50;;;3.83;;
40595;SDS011;26304;48.794;9.820;2023-03-01T15:51:10;4.93;;;3.38;;
40595;SDS011;26304;48.794;9.820;2023-03-01T15:56:54;5.20;;;3.47;;
40595;SDS011;26304;48.794;9.820;2023-03-01T16:02:37;6.38;;;3.60;;
40595;SDS011;26304;48.794;9.820;2023-03-01T16:08:21;12.48;;;4.00;;
40595;SDS011;26304;48.794;9.820;2023-03-01T16:14:04;7.90;;;3.60;;
40595;SDS011;26304;48.794;9.820;2023-03-01T16:19:46;4.03;;;3.65;;
40595;SDS011;26304;48.794;9.820;2023-03-01T16:25:30;3.78;;;3.47;;
40595;SDS011;26304;48.794;9.820;2023-03-01T16:31:16;8.50;;;3.35;;
40595;SDS011;26304;48.794;9.820;2023-03-01T16:37:00;3.97;;;3.47;;
40595;SDS011;26304;48.794;9.820;2023-03-01T16:42:44;4.55;;;3.47;;
40595;SDS011;26304;48.794;9.820;2023-03-01T16:48:26;4.97;;;3.80;;
40595;SDS011;26304;48.794;9.820;2023-03-01T16:54:09;3.78;;;3.47;;
40595;SDS011;26304;48.794;9.820;2023-03-01T16:59:53;4.13;;;3.70;;
40595;SDS011;26304;48.794;9.820;2023-03-01T17:05:36;3.38;;;3.17;;
40595;SDS011;26304;48.794;9.820;2023-03-01T17:11:22;3.70;;;3.40;;
40595;SDS011;26304;48.794;9.820;2023-03-01T17:17:06;4.15;;;3.13;;
40595;SDS011;26304;48.794;9.820;2023-03-01T17:22:48;7.00;;;3.80;;
40595;SDS011;26304;48.794;9.820;2023-03-01T17:28:33;7.95;;;3.13;;
40595;SDS011;26304;48.794;9.820;2023-03-01T17:34:18;5.45;;;3.63;;
40595;SDS011;26304;48.794;9.820;2023-03-01T17:40:00;5.30;;;2.95;;
40595;SDS011;26304;48.794;9.820;2023-03-01T17:45:43;5.55;;;3.33;;
40595;SDS011;26304;48.794;9.820;2023-03-01T17:51:29;5.85;;;2.95;;
40595;SDS011;26304;48.794;9.820;2023-03-01T17:57:12;5.72;;;3.45;;
40595;SDS011;26304;48.794;9.820;2023-03-01T18:02:55;4.15;;;3.10;;
40595;SDS011;26304;48.794;9.820;2023-03-01T18:08:38;8.30;;;4.00;;
40595;SDS011;26304;48.794;9.820;2023-03-01T18:14:21;7.70;;;4.13;;
40595;SDS011;26304;48.794;9.820;2023-03-01T18:20:04;5.05;;;4.57;;
40595;SDS011;26304;48.794;9.820;2023-03-01T18:25:49;12.43;;;4.40;;
40595;SDS011;26304;48.794;9.820;2023-03-01T18:31:32;10.20;;;4.60;;
40595;SDS011;26304;48.794;9.820;2023-03-01T18:37:15;4.32;;;3.92;;
40595;SDS011;26304;48.794;9.820;2023-03-01T18:42:59;3.78;;;3.42;;
40595;SDS011;26304;48.794;9.820;2023-03-01T18:48:41;4.47;;;3.78;;
40595;SDS011;26304;48.794;9.820;2023-03-01T18:54:24;5.38;;;3.75;;
40595;SDS011;26304;48.794;9.820;2023-03-01T19:00:09;4.50;;;3.88;;
40595;SDS011;26304;48.794;9.820;2023-03-01T19:05:52;6.43;;;4.15;;
40595;SDS011;26304;48.794;9.820;2023-03-01T19:11:35;3.80;;;3.47;;
40595;SDS011;26304;48.794;9.820;2023-03-01T19:17:19;4.53;;;3.20;;
40595;SDS011;26304;48.794;9.820;2023-03-01T19:23:04;4.47;;;4.05;;
40595;SDS011;26304;48.794;9.820;2023-03-01T19:28:47;4.32;;;3.92;;
40595;SDS011;26304;48.794;9.820;2023-03-01T19:34:31;4.07;;;3.65;;
40595;SDS011;26304;48.794;9.820;2023-03-01T19:40:14;5.05;;;3.63;;
40595;SDS011;26304;48.794;9.820;2023-03-01T19:45:56;4.25;;;3.85;;
40595;SDS011;26304;48.794;9.820;2023-03-01T19:51:40;3.95;;;3.47;;
40595;SDS011;26304;48.794;9.820;2023-03-01T19:57:22;6.20;;;4.63;;
40595;SDS011;26304;48.794;9.820;2023-03-01T20:03:05;6.93;;;5.88;;
40595;SDS011;26304;48.794;9.820;2023-03-01T20:08:49;5.30;;;4.55;;
40595;SDS011;26304;48.794;9.820;2023-03-01T20:14:31;4.75;;;4.35;;
40595;SDS011;26304;48.794;9.820;2023-03-01T20:20:14;7.18;;;6.50;;
40595;SDS011;26304;48.794;9.820;2023-03-01T20:26:04;9.60;;;7.25;;
40595;SDS011;26304;48.794;9.820;2023-03-01T20:31:47;10.60;;;9.70;;
40595;SDS011;26304;48.794;9.820;2023-03-01T20:37:30;12.43;;;11.32;;
40595;SDS011;26304;48.794;9.820;2023-03-01T20:43:14;13.48;;;12.15;;
40595;SDS011;26304;48.794;9.820;2023-03-01T20:48:56;13.15;;;12.05;;
40595;SDS011;26304;48.794;9.820;2023-03-01T20:54:39;12.32;;;11.18;;
40595;SDS011;26304;48.794;9.820;2023-03-01T21:00:23;11.57;;;10.57;;
40595;SDS011;26304;48.794;9.820;2023-03-01T21:06:05;10.13;;;9.20;;
40595;SDS011;26304;48.794;9.820;2023-03-01T21:11:48;9.02;;;8.23;;
40595;SDS011;26304;48.794;9.820;2023-03-01T21:17:32;8.98;;;8.13;;
40595;SDS011;26304;48.794;9.820;2023-03-01T21:23:15;9.45;;;7.45;;
40595;SDS011;26304;48.794;9.820;2023-03-01T21:28:59;7.72;;;7.05;;
40595;SDS011;26304;48.794;9.820;2023-03-01T21:34:43;7.07;;;6.47;;
40595;SDS011;26304;48.794;9.820;2023-03-01T21:40:26;7.00;;;6.40;;
40595;SDS011;26304;48.794;9.820;2023-03-01T21:46:10;7.10;;;6.40;;
40595;SDS011;26304;48.794;9.820;2023-03-01T21:51:56;7.15;;;6.53;;
40595;SDS011;26304;48.794;9.820;2023-03-01T21:57:38;6.43;;;5.90;;
40595;SDS011;26304;48.794;9.820;2023-03-01T22:03:23;6.20;;;5.60;;
40595;SDS011;26304;48.794;9.820;2023-03-01T22:09:08;6.30;;;5.80;;
40595;SDS011;26304;48.794;9.820;2023-03-01T22:14:52;5.43;;;4.90;;
40595;SDS011;26304;48.794;9.820;2023-03-01T22:20:35;5.72;;;5.22;;
40595;SDS011;26304;48.794;9.820;2023-03-01T22:26:24;6.10;;;5.60;;
40595;SDS011;26304;48.794;9.820;2023-03-01T22:32:08;5.95;;;5.45;;
40595;SDS011;26304;48.794;9.820;2023-03-01T22:37:50;6.18;;;5.57;;
40595;SDS011;26304;48.794;9.820;2023-03-01T22:43:34;5.95;;;5.40;;
40595;SDS011;26304;48.794;9.820;2023-03-01T22:49:17;5.97;;;5.47;;
40595;SDS011;26304;48.794;9.820;2023-03-01T22:55:00;5.20;;;4.80;;
40595;SDS011;26304;48.794;9.820;2023-03-01T23:00:43;5.18;;;4.78;;
40595;SDS011;26304;48.794;9.820;2023-03-01T23:06:26;4.70;;;4.40;;
40595;SDS011;26304;48.794;9.820;2023-03-01T23:12:09;5.45;;;4.90;;
40595;SDS011;26304;48.794;9.820;2023-03-01T23:17:53;5.25;;;4.82;;
40595;SDS011;26304;48.794;9.820;2023-03-01T23:23:36;4.63;;;4.22;;
40595;SDS011;26304;48.794;9.820;2023-03-01T23:29:18;5.47;;;4.97;;
40595;SDS011;26304;48.794;9.820;2023-03-01T23:35:03;4.72;;;4.32;;
40595;SDS011;26304;48.794;9.820;2023-03-01T23:40:46;4.60;;;4.15;;
40595;SDS011;26304;48.794;9.820;2023-03-01T23:46:29;4.47;;;4.15;;
40595;SDS011;26304;48.794;9.820;2023-03-01T23:52:14;4.57;;;4.28;;
40595;SDS011;26304;48.794;9.820;2023-03-01T23:57:57;4.30;;;4.00;;
